Terminal Aerodrome Forecast
Issued by NWS

Home | Current Version | Previous Version | Text Only | Print | Product List | Glossary On
Versions: 1 2 3 4 5 6 7 8 9 10 11 12 13 14 15
000
FTUS46 KLOX 300657 AAA
TAFVNY
TAF AMD
KVNY 300657Z 3007/0106 12006KT P6SM SCT250
     FM300800 13005KT P6SM OVC011
     FM301200 12005KT 6SM -DZ BR BKN011 OVC021
     FM301700 14007KT P6SM SCT030 SCT060
     FM302000 16012KT P6SM SCT030 SCT060
     FM010300 14008KT P6SM FEW014=

USA.gov is the U.S. government's official web portal to all federal, state and local government web resources and services.